createdAt,value
2023-02-22T00:01:51.527Z,3.88
2023-02-22T00:04:21.468Z,3.90
2023-02-22T00:06:50.022Z,4.45
2023-02-22T00:09:20.834Z,3.85
2023-02-22T00:11:48.898Z,4.30
2023-02-22T00:14:20.499Z,3.67
2023-02-22T00:16:47.757Z,4.30
2023-02-22T00:19:14.761Z,4.60
2023-02-22T00:21:41.757Z,4.05
2023-02-22T00:24:23.403Z,3.60
2023-02-22T00:26:57.636Z,3.63
2023-02-22T00:29:25.472Z,3.10
2023-02-22T00:31:52.688Z,4.30
2023-02-22T00:34:19.780Z,3.45
2023-02-22T00:36:48.390Z,3.90
2023-02-22T00:39:15.706Z,4.00
2023-02-22T00:41:42.949Z,3.53
2023-02-22T00:44:10.012Z,3.97
2023-02-22T00:46:37.008Z,3.65
2023-02-22T00:49:05.395Z,3.42
2023-02-22T00:51:34.089Z,3.50
2023-02-22T00:54:01.492Z,3.53
2023-02-22T00:56:28.852Z,4.25
2023-02-22T00:58:55.884Z,3.25
2023-02-22T01:01:24.437Z,3.80
2023-02-22T01:03:51.845Z,4.30
2023-02-22T01:06:19.464Z,3.97
2023-02-22T01:08:47.850Z,3.80
2023-02-22T01:11:16.784Z,3.63
2023-02-22T01:13:45.501Z,3.70
2023-02-22T01:16:12.736Z,3.90
2023-02-22T01:18:39.882Z,4.10
2023-02-22T01:21:07.007Z,4.50
2023-02-22T01:23:34.019Z,4.30
2023-02-22T01:26:01.044Z,4.82
2023-02-22T01:28:29.271Z,4.55
2023-02-22T01:30:56.913Z,4.57
2023-02-22T01:33:24.476Z,5.05
2023-02-22T01:35:51.647Z,4.57
2023-02-22T01:38:19.099Z,4.80
2023-02-22T01:40:49.379Z,4.75
2023-02-22T01:43:26.446Z,4.85
2023-02-22T01:46:19.099Z,5.35
2023-02-22T01:48:56.455Z,4.55
2023-02-22T01:51:28.235Z,4.72
2023-02-22T01:54:08.900Z,5.05
2023-02-22T01:56:39.656Z,5.40
2023-02-22T01:59:09.777Z,4.60
2023-02-22T02:01:43.214Z,4.43
2023-02-22T02:04:19.407Z,4.13
2023-02-22T02:06:48.186Z,4.20
2023-02-22T02:09:30.288Z,3.85
2023-02-22T02:12:01.033Z,5.15
2023-02-22T02:14:28.147Z,4.28
2023-02-22T02:16:56.427Z,4.53
2023-02-22T02:19:32.564Z,5.47
2023-02-22T02:22:47.028Z,3.72
2023-02-22T02:25:37.938Z,4.07
2023-02-22T02:28:34.321Z,4.90
2023-02-22T02:31:28.692Z,4.30
2023-02-22T02:34:24.331Z,4.05
2023-02-22T02:37:13.020Z,4.25
2023-02-22T02:39:50.593Z,4.15
2023-02-22T02:42:23.175Z,3.70
2023-02-22T02:44:56.579Z,4.35
2023-02-22T02:47:37.228Z,4.53
2023-02-22T02:50:11.583Z,3.80
2023-02-22T02:52:41.104Z,4.10
2023-02-22T02:55:11.411Z,4.55
2023-02-22T02:57:41.535Z,3.90
2023-02-22T03:00:24.593Z,4.40
2023-02-22T03:03:10.538Z,4.30
2023-02-22T03:06:02.389Z,3.85
2023-02-22T03:08:44.435Z,4.40
2023-02-22T03:11:18.517Z,4.38
2023-02-22T03:13:56.747Z,4.63
2023-02-22T03:16:42.657Z,3.83
2023-02-22T03:19:34.912Z,4.20
2023-02-22T03:22:05.124Z,3.63
2023-02-22T03:24:42.806Z,4.05
2023-02-22T03:27:15.053Z,4.53
2023-02-22T03:29:45.839Z,3.75
2023-02-22T03:32:22.806Z,4.18
2023-02-22T03:35:00.710Z,4.35
2023-02-22T03:37:35.178Z,4.15
2023-02-22T03:40:14.103Z,3.90
2023-02-22T03:42:47.750Z,4.63
2023-02-22T03:45:18.179Z,3.70
2023-02-22T03:47:53.091Z,4.60
2023-02-22T03:50:26.520Z,4.20
2023-02-22T03:52:53.950Z,4.28
2023-02-22T03:55:21.023Z,4.65
2023-02-22T03:57:54.721Z,4.13
2023-02-22T04:00:25.124Z,3.47
2023-02-22T04:02:52.211Z,4.43
2023-02-22T04:05:19.594Z,3.78
2023-02-22T04:07:46.631Z,4.30
2023-02-22T04:10:15.501Z,4.60
2023-02-22T04:12:42.537Z,4.53
2023-02-22T04:15:13.131Z,4.10
2023-02-22T04:17:40.125Z,4.28
2023-02-22T04:20:07.806Z,3.50
2023-02-22T04:22:34.871Z,4.40
2023-02-22T04:25:01.860Z,4.25
2023-02-22T04:27:28.928Z,4.28
2023-02-22T04:29:55.959Z,4.38
2023-02-22T04:32:23.083Z,3.95
2023-02-22T04:34:50.127Z,4.35
2023-02-22T04:37:17.139Z,4.20
2023-02-22T04:39:44.235Z,4.07
2023-02-22T04:42:11.336Z,4.10
2023-02-22T04:44:38.348Z,4.47
2023-02-22T04:47:05.364Z,3.63
2023-02-22T04:49:32.379Z,3.42
2023-02-22T04:51:59.421Z,4.50
2023-02-22T04:54:26.468Z,4.00
2023-02-22T04:56:53.568Z,4.68
2023-02-22T04:59:20.603Z,4.55
2023-02-22T05:01:47.759Z,4.60
2023-02-22T05:04:14.770Z,4.03
2023-02-22T05:06:42.008Z,4.47
2023-02-22T05:09:09.057Z,4.68
2023-02-22T05:11:36.072Z,5.13
2023-02-22T05:14:03.125Z,4.97
2023-02-22T05:16:30.257Z,5.63
2023-02-22T05:18:57.305Z,6.25
2023-02-22T05:21:24.322Z,5.55
2023-02-22T05:23:51.374Z,5.53
2023-02-22T05:26:19.163Z,6.85
2023-02-22T05:28:46.402Z,5.47
2023-02-22T05:31:13.466Z,6.47
2023-02-22T05:33:40.594Z,4.78
2023-02-22T05:36:08.109Z,5.55
2023-02-22T05:38:36.543Z,5.72
2023-02-22T05:41:03.492Z,5.32
2023-02-22T05:43:30.638Z,5.78
2023-02-22T05:45:57.674Z,4.60
2023-02-22T05:48:24.700Z,5.97
2023-02-22T05:50:51.864Z,5.45
2023-02-22T05:53:18.925Z,5.20
2023-02-22T05:55:46.637Z,5.47
2023-02-22T05:58:13.768Z,5.38
2023-02-22T06:00:40.812Z,4.75
2023-02-22T06:03:09.949Z,5.15
2023-02-22T06:05:37.856Z,5.30
2023-02-22T06:08:06.493Z,5.80
2023-02-22T06:10:34.020Z,5.15
2023-02-22T06:13:02.174Z,4.55
2023-02-22T06:15:29.589Z,4.25
2023-02-22T06:17:58.858Z,5.68
2023-02-22T06:20:28.128Z,5.20
2023-02-22T06:22:56.668Z,4.80
2023-02-22T06:25:27.142Z,4.57
2023-02-22T06:27:54.223Z,4.43
2023-02-22T06:30:24.088Z,5.18
2023-02-22T06:32:51.182Z,4.50
2023-02-22T06:35:19.073Z,4.88
2023-02-22T06:37:46.273Z,4.63
2023-02-22T06:40:14.182Z,4.22
2023-02-22T06:42:41.628Z,5.20
2023-02-22T06:45:09.932Z,5.25
2023-02-22T06:47:44.061Z,5.32
2023-02-22T06:50:31.730Z,5.15
2023-02-22T06:52:59.497Z,5.00
2023-02-22T06:55:32.653Z,4.70
2023-02-22T06:58:00.165Z,5.00
2023-02-22T07:00:28.476Z,4.75
2023-02-22T07:02:56.177Z,4.88
2023-02-22T07:05:25.800Z,4.63
2023-02-22T07:07:55.509Z,4.25
2023-02-22T07:10:28.927Z,5.90
2023-02-22T07:12:56.028Z,4.82
2023-02-22T07:15:24.693Z,7.65
2023-02-22T07:17:52.680Z,8.32
2023-02-22T07:20:20.948Z,9.63
2023-02-22T07:22:50.060Z,9.07
2023-02-22T07:25:17.341Z,9.27
2023-02-22T07:27:44.464Z,7.78
2023-02-22T07:30:26.502Z,7.80
2023-02-22T07:32:55.269Z,7.93
2023-02-22T07:35:39.695Z,6.68
2023-02-22T07:38:10.477Z,5.20
2023-02-22T07:40:38.560Z,7.30
2023-02-22T07:43:22.096Z,5.45
2023-02-22T07:45:51.333Z,5.32
2023-02-22T07:48:20.153Z,6.05
2023-02-22T07:50:47.444Z,5.20
2023-02-22T07:53:18.231Z,6.53
2023-02-22T07:55:45.696Z,7.15
2023-02-22T07:58:15.258Z,5.53
2023-02-22T08:00:44.270Z,6.40
2023-02-22T08:03:14.086Z,6.35
2023-02-22T08:05:43.080Z,6.05
2023-02-22T08:08:10.109Z,5.60
2023-02-22T08:10:37.713Z,5.20
2023-02-22T08:13:05.997Z,4.93
2023-02-22T08:15:36.381Z,5.40
2023-02-22T08:18:06.416Z,4.40
2023-02-22T08:20:33.414Z,4.32
2023-02-22T08:23:00.486Z,3.90
2023-02-22T08:25:28.983Z,5.43
2023-02-22T08:28:05.140Z,5.30
2023-02-22T08:30:35.072Z,4.70
2023-02-22T08:33:03.349Z,4.70
2023-02-22T08:35:32.566Z,4.40
2023-02-22T08:38:04.760Z,4.07
2023-02-22T08:40:35.412Z,5.15
2023-02-22T08:43:03.443Z,4.32
2023-02-22T08:45:30.689Z,4.63
2023-02-22T08:47:58.973Z,5.13
2023-02-22T08:50:33.752Z,4.68
2023-02-22T08:53:02.601Z,4.80
2023-02-22T08:55:33.048Z,4.75
2023-02-22T08:58:03.122Z,5.00
2023-02-22T09:00:33.424Z,4.40
2023-02-22T09:03:04.778Z,4.80
2023-02-22T09:05:32.061Z,4.72
2023-02-22T09:08:00.018Z,4.90
2023-02-22T09:10:33.373Z,4.25
2023-02-22T09:13:04.123Z,4.97
2023-02-22T09:15:32.174Z,4.00
2023-02-22T09:17:59.923Z,4.40
2023-02-22T09:20:28.143Z,3.50
2023-02-22T09:22:55.685Z,4.05
2023-02-22T09:25:23.432Z,4.20
2023-02-22T09:27:52.531Z,3.50
2023-02-22T09:30:32.937Z,3.50
2023-02-22T09:33:21.102Z,3.80
2023-02-22T09:35:50.126Z,4.35
2023-02-22T09:38:23.524Z,3.10
2023-02-22T09:40:54.501Z,4.45
2023-02-22T09:43:31.317Z,3.70
2023-02-22T09:46:22.036Z,3.85
2023-02-22T09:49:01.820Z,3.47
2023-02-22T09:51:49.551Z,3.42
2023-02-22T09:54:37.463Z,4.18
2023-02-22T09:57:13.292Z,3.35
2023-02-22T09:59:44.314Z,2.97
2023-02-22T10:02:34.267Z,3.15
2023-02-22T10:05:08.642Z,3.78
2023-02-22T10:07:51.722Z,3.55
2023-02-22T10:10:21.331Z,3.65
2023-02-22T10:13:14.234Z,2.65
2023-02-22T10:15:47.982Z,2.72
2023-02-22T10:18:36.384Z,3.10
2023-02-22T10:21:14.774Z,3.40
2023-02-22T10:24:00.226Z,2.85
2023-02-22T10:26:41.147Z,2.70
2023-02-22T10:29:29.301Z,3.15
2023-02-22T10:32:03.294Z,4.15
2023-02-22T10:34:38.516Z,3.47
2023-02-22T10:37:24.058Z,3.60
2023-02-22T10:39:54.167Z,3.63
2023-02-22T10:42:25.658Z,3.90
2023-02-22T10:44:52.720Z,3.30
2023-02-22T10:47:22.009Z,3.47
2023-02-22T10:50:07.618Z,3.50
2023-02-22T10:52:35.368Z,3.43
2023-02-22T10:55:15.292Z,3.87
2023-02-22T10:57:46.641Z,4.07
2023-02-22T11:00:43.967Z,3.80
2023-02-22T11:03:21.122Z,3.87
2023-02-22T11:05:49.532Z,3.03
2023-02-22T11:08:28.357Z,3.13
2023-02-22T11:11:01.757Z,3.27
2023-02-22T11:13:33.616Z,3.07
2023-02-22T11:16:41.222Z,2.80
2023-02-22T11:19:20.742Z,2.50
2023-02-22T11:21:51.660Z,2.53
2023-02-22T11:24:20.141Z,2.37
2023-02-22T11:26:50.339Z,2.40
2023-02-22T11:29:25.671Z,2.40
2023-02-22T11:31:53.325Z,2.30
2023-02-22T11:34:31.775Z,2.10
2023-02-22T11:37:36.669Z,2.53
2023-02-22T11:40:24.087Z,1.73
2023-02-22T11:43:12.414Z,1.87
2023-02-22T11:45:49.888Z,1.60
2023-02-22T11:48:23.789Z,2.73
2023-02-22T11:51:43.194Z,2.50
2023-02-22T11:54:31.553Z,1.93
2023-02-22T11:57:01.544Z,2.50
2023-02-22T11:59:41.036Z,2.80
2023-02-22T12:02:27.816Z,2.63
2023-02-22T12:04:54.928Z,2.30
2023-02-22T12:07:42.650Z,1.80
2023-02-22T12:10:38.624Z,2.13
2023-02-22T12:13:17.983Z,2.07
2023-02-22T12:16:09.724Z,2.17
2023-02-22T12:19:27.829Z,1.73
2023-02-22T12:22:02.441Z,2.17
2023-02-22T12:24:40.133Z,1.40
2023-02-22T12:27:16.053Z,2.03
2023-02-22T12:29:57.891Z,1.93
2023-02-22T12:32:42.612Z,2.23
2023-02-22T12:35:19.408Z,1.40
2023-02-22T12:37:52.433Z,2.00
2023-02-22T12:40:54.169Z,1.33
2023-02-22T12:43:45.079Z,1.80
2023-02-22T12:46:23.458Z,1.60
2023-02-22T12:49:05.285Z,2.00
2023-02-22T12:51:56.696Z,2.17
2023-02-22T12:54:29.359Z,2.93
2023-02-22T12:57:02.668Z,1.90
2023-02-22T12:59:32.921Z,2.33
2023-02-22T13:02:21.961Z,2.57
2023-02-22T13:04:49.647Z,2.27
2023-02-22T13:07:35.112Z,2.53
2023-02-22T13:10:35.601Z,2.73
2023-02-22T13:13:31.983Z,2.43
2023-02-22T13:16:03.500Z,2.27
2023-02-22T13:18:52.714Z,2.63
2023-02-22T13:21:29.965Z,2.30
2023-02-22T13:24:13.736Z,2.40
2023-02-22T13:27:10.845Z,2.43
2023-02-22T13:29:41.769Z,2.90
2023-02-22T13:32:17.402Z,2.40
2023-02-22T13:35:20.001Z,2.57
2023-02-22T13:37:56.101Z,2.37
2023-02-22T13:40:50.177Z,2.60
2023-02-22T13:43:31.571Z,2.70
2023-02-22T13:46:13.860Z,2.73
2023-02-22T13:48:49.810Z,2.67
2023-02-22T13:51:37.066Z,2.30
2023-02-22T13:54:29.964Z,2.70
2023-02-22T13:56:58.355Z,2.97
2023-02-22T13:59:28.371Z,2.33
2023-02-22T14:01:56.509Z,2.50
2023-02-22T14:04:29.529Z,2.70
2023-02-22T14:07:17.863Z,2.40
2023-02-22T14:09:50.675Z,3.50
2023-02-22T14:12:29.572Z,2.73
2023-02-22T14:15:29.237Z,2.80
2023-02-22T14:17:57.279Z,2.73
2023-02-22T14:20:32.517Z,2.77
2023-02-22T14:23:38.184Z,3.20
2023-02-22T14:26:29.390Z,3.07
2023-02-22T14:29:08.305Z,2.73
2023-02-22T14:31:41.297Z,2.70
2023-02-22T14:34:13.897Z,2.50
2023-02-22T14:36:58.574Z,2.50
2023-02-22T14:39:46.144Z,2.90
2023-02-22T14:42:28.227Z,2.90
2023-02-22T14:44:55.268Z,2.40
2023-02-22T14:47:29.483Z,2.17
2023-02-22T14:50:13.039Z,2.77
2023-02-22T14:52:43.443Z,2.57
2023-02-22T14:55:27.388Z,2.80
2023-02-22T14:58:20.985Z,2.40
2023-02-22T15:00:52.776Z,2.67
2023-02-22T15:03:29.122Z,2.40
2023-02-22T15:05:59.847Z,3.40
2023-02-22T15:08:28.720Z,3.23
2023-02-22T15:10:56.084Z,2.17
2023-02-22T15:13:28.103Z,2.58
2023-02-22T15:16:01.879Z,2.40
2023-02-22T15:18:46.371Z,2.50
2023-02-22T15:21:21.182Z,2.25
2023-02-22T15:23:55.644Z,2.13
2023-02-22T15:26:59.090Z,2.55
2023-02-22T15:29:37.599Z,3.20
2023-02-22T15:32:27.723Z,2.88
2023-02-22T15:34:56.661Z,2.10
2023-02-22T15:37:28.150Z,2.58
2023-02-22T15:40:14.735Z,3.20
2023-02-22T15:42:47.568Z,3.20
2023-02-22T15:45:20.341Z,3.40
2023-02-22T15:47:51.888Z,2.55
2023-02-22T15:50:27.963Z,2.60
2023-02-22T15:53:04.957Z,1.90
2023-02-22T15:55:42.154Z,2.20
2023-02-22T15:58:12.048Z,1.90
2023-02-22T16:00:42.548Z,2.08
2023-02-22T16:03:16.510Z,2.30
2023-02-22T16:05:52.662Z,2.22
2023-02-22T16:08:24.081Z,2.25
2023-02-22T16:11:00.459Z,2.30
2023-02-22T16:13:32.702Z,2.67
2023-02-22T16:16:23.315Z,3.00
2023-02-22T16:18:52.196Z,3.30
2023-02-22T16:21:23.855Z,3.92
2023-02-22T16:24:01.363Z,5.40
2023-02-22T16:26:35.117Z,4.82
2023-02-22T16:29:08.870Z,9.63
2023-02-22T16:31:38.914Z,5.20
2023-02-22T16:34:08.497Z,7.57
2023-02-22T16:36:45.427Z,4.03
2023-02-22T16:39:24.412Z,3.13
2023-02-22T16:41:52.523Z,3.15
2023-02-22T16:44:19.628Z,4.50
2023-02-22T16:46:46.810Z,2.90
2023-02-22T16:49:14.893Z,3.63
2023-02-22T16:51:49.866Z,4.07
2023-02-22T16:54:25.485Z,3.80
2023-02-22T16:56:55.607Z,4.10
2023-02-22T16:59:23.512Z,5.57
2023-02-22T17:01:50.649Z,4.60
2023-02-22T17:04:21.183Z,5.20
2023-02-22T17:06:48.922Z,5.32
2023-02-22T17:09:16.696Z,3.80
2023-02-22T17:11:44.264Z,4.13
2023-02-22T17:14:17.081Z,3.80
2023-02-22T17:16:44.193Z,3.80
2023-02-22T17:19:21.429Z,3.75
2023-02-22T17:21:50.380Z,4.50
2023-02-22T17:24:20.502Z,4.28
2023-02-22T17:26:47.756Z,4.25
2023-02-22T17:29:16.919Z,4.90
2023-02-22T17:31:44.715Z,6.25
2023-02-22T17:34:12.023Z,6.72
2023-02-22T17:36:39.423Z,5.80
2023-02-22T17:39:10.712Z,5.55
2023-02-22T17:41:40.639Z,5.03
2023-02-22T17:44:08.665Z,4.97
2023-02-22T17:46:41.205Z,5.60
2023-02-22T17:49:09.009Z,4.13
2023-02-22T17:51:40.167Z,3.95
2023-02-22T17:54:09.436Z,4.55
2023-02-22T17:56:38.052Z,4.85
2023-02-22T17:59:09.522Z,4.18
2023-02-22T18:01:37.679Z,4.60
2023-02-22T18:04:05.698Z,3.60
2023-02-22T18:06:33.881Z,4.20
2023-02-22T18:09:09.070Z,5.78
2023-02-22T18:11:39.168Z,5.70
2023-02-22T18:14:10.168Z,4.90
2023-02-22T18:16:40.034Z,5.93
2023-02-22T18:19:07.431Z,5.20
2023-02-22T18:21:35.422Z,5.72
2023-02-22T18:24:03.341Z,5.25
2023-02-22T18:26:31.195Z,6.57
2023-02-22T18:29:01.263Z,7.30
2023-02-22T18:31:29.736Z,6.38
2023-02-22T18:33:58.287Z,6.30
2023-02-22T18:36:28.066Z,7.57
2023-02-22T18:38:57.069Z,7.35
2023-02-22T18:41:25.962Z,7.75
2023-02-22T18:43:55.888Z,8.30
2023-02-22T18:46:25.358Z,8.90
2023-02-22T18:48:55.707Z,9.38
2023-02-22T18:51:24.647Z,9.35
2023-02-22T18:53:58.659Z,9.40
2023-02-22T18:56:32.341Z,8.48
2023-02-22T18:59:01.695Z,8.18
2023-02-22T19:01:31.020Z,8.27
2023-02-22T19:03:59.931Z,8.48
2023-02-22T19:06:28.005Z,8.18
2023-02-22T19:08:55.602Z,10.18
2023-02-22T19:11:25.783Z,9.98
2023-02-22T19:14:01.121Z,9.90
2023-02-22T19:16:30.843Z,8.75
2023-02-22T19:18:59.254Z,9.30
2023-02-22T19:21:34.926Z,9.15
2023-02-22T19:24:03.153Z,9.85
2023-02-22T19:26:31.339Z,9.88
2023-02-22T19:29:02.714Z,9.70
2023-02-22T19:31:34.869Z,8.77
2023-02-22T19:34:06.218Z,9.35
2023-02-22T19:36:34.900Z,9.35
2023-02-22T19:39:03.055Z,9.88
2023-02-22T19:41:31.886Z,10.05
2023-02-22T19:44:00.502Z,9.70
2023-02-22T19:46:29.201Z,10.32
2023-02-22T19:48:59.721Z,9.35
2023-02-22T19:51:30.147Z,9.80
2023-02-22T19:53:59.849Z,10.27
2023-02-22T19:56:29.083Z,9.68
2023-02-22T19:58:59.179Z,10.45
2023-02-22T20:01:30.460Z,9.30
2023-02-22T20:04:01.830Z,11.75
2023-02-22T20:06:42.420Z,11.30
2023-02-22T20:09:16.384Z,11.63
2023-02-22T20:11:48.396Z,13.10
2023-02-22T20:14:24.144Z,13.38
2023-02-22T20:16:56.799Z,11.43
2023-02-22T20:19:27.390Z,13.13
2023-02-22T20:21:57.946Z,12.23
2023-02-22T20:24:28.373Z,12.02
2023-02-22T20:26:58.643Z,11.18
2023-02-22T20:29:35.969Z,11.73
2023-02-22T20:32:09.407Z,10.85
2023-02-22T20:34:37.298Z,10.70
2023-02-22T20:37:06.520Z,11.02
2023-02-22T20:39:36.125Z,12.10
2023-02-22T20:42:06.206Z,12.55
2023-02-22T20:44:34.178Z,11.18
2023-02-22T20:47:06.683Z,11.80
2023-02-22T20:49:36.673Z,11.45
2023-02-22T20:52:05.144Z,10.43
2023-02-22T20:54:35.026Z,10.30
2023-02-22T20:57:03.027Z,9.57
2023-02-22T20:59:30.994Z,9.43
2023-02-22T21:01:59.124Z,10.18
2023-02-22T21:04:33.519Z,9.82
2023-02-22T21:07:06.621Z,9.70
2023-02-22T21:09:34.625Z,9.82
2023-02-22T21:12:02.359Z,8.65
2023-02-22T21:14:33.059Z,10.25
2023-02-22T21:17:05.467Z,10.43
2023-02-22T21:19:33.637Z,10.05
2023-02-22T21:22:06.911Z,10.25
2023-02-22T21:24:36.804Z,9.98
2023-02-22T21:27:07.462Z,9.23
2023-02-22T21:29:36.185Z,10.68
2023-02-22T21:32:04.876Z,10.02
2023-02-22T21:34:35.943Z,9.25
2023-02-22T21:37:08.896Z,9.13
2023-02-22T21:39:36.748Z,10.23
2023-02-22T21:42:08.371Z,10.15
2023-02-22T21:44:36.462Z,10.70
2023-02-22T21:47:03.723Z,9.30
2023-02-22T21:49:31.056Z,8.32
2023-02-22T21:51:58.080Z,8.18
2023-02-22T21:54:25.704Z,8.77
2023-02-22T21:56:54.703Z,9.10
2023-02-22T21:59:25.396Z,8.50
2023-02-22T22:01:56.572Z,9.95
2023-02-22T22:04:32.196Z,9.40
2023-02-22T22:07:00.669Z,9.05
2023-02-22T22:09:33.163Z,8.35
2023-02-22T22:12:05.311Z,9.13
2023-02-22T22:14:34.536Z,10.00
2023-02-22T22:17:03.505Z,8.95
2023-02-22T22:19:34.284Z,8.82
2023-02-22T22:22:01.620Z,9.07
2023-02-22T22:24:32.171Z,8.77
2023-02-22T22:27:03.853Z,8.73
2023-02-22T22:29:32.652Z,9.10
2023-02-22T22:32:00.095Z,8.25
2023-02-22T22:34:29.810Z,8.90
2023-02-22T22:36:58.236Z,8.73
2023-02-22T22:39:27.027Z,7.63
2023-02-22T22:41:54.083Z,8.10
2023-02-22T22:44:24.342Z,8.52
2023-02-22T22:46:54.904Z,8.38
2023-02-22T22:49:24.376Z,8.07
2023-02-22T22:51:51.417Z,8.57
2023-02-22T22:54:18.516Z,8.07
2023-02-22T22:56:45.569Z,8.60
2023-02-22T22:59:13.632Z,8.38
2023-02-22T23:01:44.837Z,8.55
2023-02-22T23:04:16.470Z,8.52
2023-02-22T23:06:50.698Z,9.10
2023-02-22T23:09:23.236Z,9.40
2023-02-22T23:11:55.532Z,8.20
2023-02-22T23:14:31.330Z,9.05
2023-02-22T23:17:03.538Z,8.60
2023-02-22T23:19:35.284Z,9.80
2023-02-22T23:22:05.411Z,8.30
2023-02-22T23:24:37.960Z,8.48
2023-02-22T23:27:10.986Z,9.70
2023-02-22T23:29:41.354Z,8.05
2023-02-22T23:32:10.417Z,9.10
2023-02-22T23:34:41.298Z,8.40
2023-02-22T23:37:10.762Z,7.75
2023-02-22T23:39:38.186Z,9.45
2023-02-22T23:42:05.284Z,8.27
2023-02-22T23:44:32.631Z,9.20
2023-02-22T23:46:59.756Z,8.43
2023-02-22T23:49:35.992Z,9.45
2023-02-22T23:52:04.539Z,9.13
2023-02-22T23:54:36.488Z,7.93
2023-02-22T23:57:05.017Z,8.98
2023-02-22T23:59:33.498Z,8.07
